createdAt,value
2022-09-20T00:01:18.794Z,5.50
2022-09-20T00:03:47.551Z,5.40
2022-09-20T00:06:17.149Z,5.40
2022-09-20T00:08:44.440Z,5.40
2022-09-20T00:11:17.655Z,5.50
2022-09-20T00:13:45.965Z,5.40
2022-09-20T00:16:16.114Z,5.40
2022-09-20T00:18:42.969Z,5.40
2022-09-20T00:21:17.234Z,5.40
2022-09-20T00:23:44.519Z,5.40
2022-09-20T00:26:11.652Z,5.40
2022-09-20T00:28:38.474Z,5.40
2022-09-20T00:31:05.769Z,5.40
2022-09-20T00:33:52.958Z,5.40
2022-09-20T00:36:19.818Z,5.60
2022-09-20T00:38:46.734Z,5.70
2022-09-20T00:41:13.533Z,6.70
2022-09-20T00:43:43.382Z,7.20
2022-09-20T00:46:42.597Z,7.50
2022-09-20T00:49:22.231Z,7.80
2022-09-20T00:52:00.540Z,8.40
2022-09-20T00:54:29.065Z,8.30
2022-09-20T00:56:55.967Z,8.30
2022-09-20T00:59:28.385Z,8.70
2022-09-20T01:02:12.301Z,8.70
2022-09-20T01:04:42.197Z,8.70
2022-09-20T01:07:13.254Z,8.40
2022-09-20T01:09:40.060Z,8.20
2022-09-20T01:12:18.326Z,7.90
2022-09-20T01:14:47.589Z,7.90
2022-09-20T01:17:15.449Z,7.80
2022-09-20T01:20:09.615Z,7.40
2022-09-20T01:22:55.390Z,7.10
2022-09-20T01:25:59.443Z,6.80
2022-09-20T01:28:27.914Z,6.50
2022-09-20T01:31:17.551Z,6.30
2022-09-20T01:34:00.659Z,6.20
2022-09-20T01:36:34.890Z,6.00
2022-09-20T01:39:37.591Z,5.90
2022-09-20T01:42:11.364Z,5.70
2022-09-20T01:45:00.768Z,5.50
2022-09-20T01:47:42.547Z,5.50
2022-09-20T01:50:21.046Z,5.50
2022-09-20T01:53:15.058Z,5.40
2022-09-20T01:55:50.802Z,5.30
2022-09-20T01:58:39.518Z,5.20
2022-09-20T02:01:44.073Z,5.10
2022-09-20T02:04:29.313Z,5.10
2022-09-20T02:07:36.542Z,5.20
2022-09-20T02:10:15.219Z,5.40
2022-09-20T02:12:52.482Z,5.30
2022-09-20T02:15:33.976Z,5.30
2022-09-20T02:18:31.211Z,5.30
2022-09-20T02:21:10.045Z,5.20
2022-09-20T02:23:48.612Z,5.20
2022-09-20T02:26:36.695Z,5.00
2022-09-20T02:29:45.223Z,5.00
2022-09-20T02:32:51.288Z,4.90
2022-09-20T02:35:23.915Z,4.90
2022-09-20T02:38:09.235Z,4.70
2022-09-20T02:40:58.435Z,4.80
2022-09-20T02:43:58.415Z,4.80
2022-09-20T02:46:48.194Z,4.90
2022-09-20T02:49:56.261Z,5.10
2022-09-20T02:52:43.262Z,5.40
2022-09-20T02:55:28.682Z,5.30
2022-09-20T02:58:28.044Z,5.20
2022-09-20T03:01:19.582Z,5.20
2022-09-20T03:04:05.290Z,5.10
2022-09-20T03:07:02.337Z,5.10
2022-09-20T03:09:35.631Z,5.00
2022-09-20T03:12:21.216Z,5.00
2022-09-20T03:15:14.377Z,4.90
2022-09-20T03:18:22.147Z,4.90
2022-09-20T03:21:08.403Z,4.90
2022-09-20T03:23:52.115Z,4.80
2022-09-20T03:26:47.380Z,4.80
2022-09-20T03:29:31.976Z,4.70
2022-09-20T03:32:16.061Z,4.70
2022-09-20T03:35:12.157Z,4.60
2022-09-20T03:37:47.896Z,4.60
2022-09-20T03:40:52.497Z,4.60
2022-09-20T03:43:40.475Z,4.60
2022-09-20T03:46:18.631Z,4.60
2022-09-20T03:48:45.515Z,4.50
2022-09-20T03:51:34.446Z,4.50
2022-09-20T03:54:27.617Z,4.60
2022-09-20T03:56:58.887Z,4.50
2022-09-20T03:59:43.893Z,4.40
2022-09-20T04:02:29.368Z,4.40
2022-09-20T04:05:01.046Z,4.30
2022-09-20T04:07:49.015Z,4.20
2022-09-20T04:10:44.254Z,4.20
2022-09-20T04:13:37.600Z,4.20
2022-09-20T04:16:37.884Z,4.20
2022-09-20T04:19:21.164Z,4.10
2022-09-20T04:21:57.693Z,4.20
2022-09-20T04:24:30.372Z,4.20
2022-09-20T04:27:19.485Z,4.10
2022-09-20T04:30:01.017Z,4.10
2022-09-20T04:32:42.777Z,4.10
2022-09-20T04:36:01.551Z,4.20
2022-09-20T04:38:29.274Z,4.10
2022-09-20T04:41:06.594Z,4.10
2022-09-20T04:43:51.196Z,4.00
2022-09-20T04:46:27.588Z,4.00
2022-09-20T04:49:19.100Z,4.00
2022-09-20T04:51:48.944Z,4.00
2022-09-20T04:54:36.628Z,4.10
2022-09-20T04:57:36.778Z,4.20
2022-09-20T05:00:12.206Z,4.30
2022-09-20T05:03:26.715Z,4.30
2022-09-20T05:06:11.312Z,4.30
2022-09-20T05:09:25.734Z,4.30
2022-09-20T05:12:24.001Z,4.20
2022-09-20T05:15:21.520Z,4.30
2022-09-20T05:18:07.058Z,4.30
2022-09-20T05:20:46.248Z,4.30
2022-09-20T05:23:25.292Z,4.30
2022-09-20T05:26:28.132Z,4.30
2022-09-20T05:29:24.662Z,4.40
2022-09-20T05:32:14.624Z,4.40
2022-09-20T05:35:03.429Z,4.50
2022-09-20T05:37:49.030Z,4.60
2022-09-20T05:40:34.239Z,4.60
2022-09-20T05:43:33.973Z,4.70
2022-09-20T05:46:14.131Z,4.70
2022-09-20T05:48:56.542Z,4.70
2022-09-20T05:51:29.499Z,4.70
2022-09-20T05:53:59.366Z,4.90
2022-09-20T05:56:39.750Z,5.00
2022-09-20T05:59:43.375Z,5.00
2022-09-20T06:02:24.623Z,5.10
2022-09-20T06:05:03.771Z,5.20
2022-09-20T06:07:52.092Z,5.30
2022-09-20T06:10:34.079Z,5.50
2022-09-20T06:13:15.401Z,5.70
2022-09-20T06:16:04.462Z,5.90
2022-09-20T06:19:02.934Z,6.30
2022-09-20T06:21:42.750Z,6.50
2022-09-20T06:24:29.418Z,6.70
2022-09-20T06:26:58.999Z,6.90
2022-09-20T06:29:35.363Z,7.20
2022-09-20T06:32:02.355Z,7.40
2022-09-20T06:34:29.451Z,7.50
2022-09-20T06:37:50.601Z,7.60
2022-09-20T06:40:50.970Z,7.70
2022-09-20T06:43:19.356Z,8.00
2022-09-20T06:45:47.150Z,8.20
2022-09-20T06:48:15.518Z,8.30
2022-09-20T06:50:45.779Z,8.20
2022-09-20T06:53:28.277Z,8.10
2022-09-20T06:55:55.454Z,8.10
2022-09-20T06:58:22.543Z,8.20
2022-09-20T07:00:49.452Z,8.40
2022-09-20T07:03:16.251Z,8.50
2022-09-20T07:05:43.088Z,8.80
2022-09-20T07:08:09.898Z,9.20
2022-09-20T07:10:36.730Z,9.80
2022-09-20T07:13:03.650Z,10.50
2022-09-20T07:15:33.188Z,11.10
2022-09-20T07:18:00.359Z,11.70
2022-09-20T07:20:27.982Z,12.20
2022-09-20T07:22:55.135Z,12.30
2022-09-20T07:25:22.570Z,12.40
2022-09-20T07:27:50.902Z,12.70
2022-09-20T07:30:20.174Z,12.70
2022-09-20T07:32:47.169Z,12.50
2022-09-20T07:35:14.198Z,12.40
2022-09-20T07:37:43.886Z,12.30
2022-09-20T07:40:11.742Z,12.20
2022-09-20T07:42:39.020Z,12.00
2022-09-20T07:45:07.704Z,11.80
2022-09-20T07:47:35.604Z,11.70
2022-09-20T07:50:03.809Z,11.70
2022-09-20T07:52:30.678Z,12.10
2022-09-20T07:54:57.642Z,12.40
2022-09-20T07:57:24.510Z,12.60
2022-09-20T07:59:51.462Z,12.70
2022-09-20T08:02:18.452Z,12.90
2022-09-20T08:04:45.366Z,13.10
2022-09-20T08:07:12.792Z,13.30
2022-09-20T08:09:39.689Z,13.30
2022-09-20T08:14:55.512Z,13.00
2022-09-20T08:17:22.309Z,13.10
2022-09-20T08:19:50.683Z,13.30
2022-09-20T08:22:17.754Z,13.80
2022-09-20T08:24:44.628Z,14.10
2022-09-20T08:27:13.102Z,14.20
2022-09-20T08:29:40.568Z,14.70
2022-09-20T08:32:07.372Z,15.00
2022-09-20T08:34:34.217Z,15.20
2022-09-20T08:37:01.015Z,15.50
2022-09-20T08:42:20.029Z,16.10
2022-09-20T08:44:58.806Z,16.00
2022-09-20T08:47:57.878Z,15.90
2022-09-20T08:50:26.936Z,15.90
2022-09-20T08:53:00.084Z,16.10
2022-09-20T08:55:36.363Z,16.40
2022-09-20T08:58:08.238Z,16.60
2022-09-20T09:00:37.264Z,16.70
2022-09-20T09:03:12.857Z,17.10
2022-09-20T09:05:54.916Z,17.20
2022-09-20T09:08:29.398Z,17.50
2022-09-20T09:10:59.430Z,17.10
2022-09-20T09:13:33.575Z,16.80
2022-09-20T09:16:12.196Z,16.10
2022-09-20T09:18:44.946Z,15.40
2022-09-20T09:21:22.204Z,15.10
2022-09-20T09:24:04.823Z,14.70
2022-09-20T09:26:40.107Z,14.50
2022-09-20T09:29:10.243Z,14.40
2022-09-20T09:31:38.577Z,14.80
2022-09-20T09:34:21.981Z,14.90
2022-09-20T09:36:48.794Z,15.00
2022-09-20T09:39:33.620Z,15.20
2022-09-20T09:42:01.153Z,15.20
2022-09-20T09:44:33.975Z,15.40
2022-09-20T09:47:02.004Z,15.30
2022-09-20T09:49:34.174Z,15.30
2022-09-20T09:52:33.214Z,15.20
2022-09-20T09:55:04.857Z,15.20
2022-09-20T09:57:43.229Z,15.40
2022-09-20T10:00:22.699Z,15.50
2022-09-20T10:03:07.788Z,15.60
2022-09-20T10:05:54.166Z,15.70
2022-09-20T10:08:39.592Z,15.60
2022-09-20T10:11:12.444Z,15.70
2022-09-20T10:13:40.793Z,15.80
2022-09-20T10:16:17.667Z,15.90
2022-09-20T10:19:22.504Z,16.00
2022-09-20T10:22:07.327Z,16.20
2022-09-20T10:25:04.447Z,16.30
2022-09-20T10:27:31.257Z,16.20
2022-09-20T10:30:12.207Z,16.40
2022-09-20T10:32:56.822Z,16.50
2022-09-20T10:35:26.671Z,16.40
2022-09-20T10:38:14.803Z,16.10
2022-09-20T10:41:25.751Z,16.10
2022-09-20T10:44:13.428Z,16.10
2022-09-20T10:46:53.065Z,16.30
2022-09-20T10:49:49.845Z,15.90
2022-09-20T10:52:23.418Z,15.90
2022-09-20T10:55:03.756Z,16.20
2022-09-20T10:57:51.802Z,16.50
2022-09-20T11:00:41.630Z,16.90
2022-09-20T11:03:30.250Z,17.00
2022-09-20T11:06:30.538Z,17.20
2022-09-20T11:09:02.376Z,16.90
2022-09-20T11:11:40.042Z,16.20
2022-09-20T11:14:20.114Z,16.60
2022-09-20T11:17:04.839Z,17.00
2022-09-20T11:19:44.792Z,17.60
2022-09-20T11:22:18.555Z,18.00
2022-09-20T11:24:48.356Z,18.40
2022-09-20T11:27:29.718Z,19.00
2022-09-20T11:30:03.140Z,19.10
2022-09-20T11:32:36.662Z,18.60
2022-09-20T11:35:14.735Z,18.20
2022-09-20T11:37:47.505Z,17.80
2022-09-20T11:40:29.861Z,17.20
2022-09-20T11:43:00.092Z,16.90
2022-09-20T11:45:28.859Z,17.20
2022-09-20T11:48:04.301Z,17.20
2022-09-20T11:51:04.554Z,17.10
2022-09-20T11:53:47.508Z,16.80
2022-09-20T11:56:25.728Z,16.50
2022-09-20T11:58:59.084Z,16.40
2022-09-20T12:01:42.803Z,16.00
2022-09-20T12:04:32.391Z,16.20
2022-09-20T12:07:09.790Z,16.30
2022-09-20T12:09:42.391Z,15.70
2022-09-20T12:12:33.461Z,15.70
2022-09-20T12:15:04.329Z,15.80
2022-09-20T12:17:57.498Z,15.70
2022-09-20T12:20:36.272Z,15.80
2022-09-20T12:23:43.367Z,15.50
2022-09-20T12:26:18.869Z,15.50
2022-09-20T12:28:51.138Z,15.00
2022-09-20T12:31:29.292Z,14.90
2022-09-20T12:34:11.790Z,15.10
2022-09-20T12:36:43.159Z,15.00
2022-09-20T12:39:16.266Z,14.70
2022-09-20T12:41:57.790Z,14.70
2022-09-20T12:44:49.410Z,14.90
2022-09-20T12:47:27.905Z,14.90
2022-09-20T12:50:16.146Z,15.00
2022-09-20T12:52:58.629Z,14.90
2022-09-20T12:55:28.201Z,15.10
2022-09-20T12:58:14.523Z,15.30
2022-09-20T13:01:14.519Z,15.60
2022-09-20T13:03:46.958Z,15.60
2022-09-20T13:06:19.677Z,15.70
2022-09-20T13:08:54.223Z,15.60
2022-09-20T13:11:25.017Z,15.50
2022-09-20T13:14:26.194Z,15.10
2022-09-20T13:16:54.949Z,14.80
2022-09-20T13:19:29.993Z,14.80
2022-09-20T13:21:59.866Z,15.00
2022-09-20T13:24:37.711Z,14.90
2022-09-20T13:27:30.543Z,15.10
2022-09-20T13:30:17.859Z,15.20
2022-09-20T13:32:45.306Z,15.40
2022-09-20T13:35:32.542Z,15.30
2022-09-20T13:38:07.923Z,15.30
2022-09-20T13:40:49.272Z,15.40
2022-09-20T13:43:40.003Z,15.40
2022-09-20T13:46:12.175Z,15.50
2022-09-20T13:48:39.503Z,15.70
2022-09-20T13:51:18.250Z,15.80
2022-09-20T13:53:46.801Z,16.00
2022-09-20T13:56:29.955Z,16.00
2022-09-20T13:58:59.771Z,15.80
2022-09-20T14:01:32.346Z,15.60
2022-09-20T14:04:05.707Z,15.70
2022-09-20T14:06:32.831Z,15.80
2022-09-20T14:09:07.076Z,15.90
2022-09-20T14:11:38.963Z,16.20
2022-09-20T14:14:08.055Z,16.00
2022-09-20T14:16:38.934Z,16.00
2022-09-20T14:19:09.880Z,15.90
2022-09-20T14:21:38.304Z,16.10
2022-09-20T14:24:26.056Z,16.40
2022-09-20T14:27:17.989Z,16.10
2022-09-20T14:29:54.882Z,16.10
2022-09-20T14:32:21.718Z,16.10
2022-09-20T14:35:02.271Z,16.30
2022-09-20T14:37:43.580Z,16.20
2022-09-20T14:40:30.407Z,15.80
2022-09-20T14:43:01.627Z,15.80
2022-09-20T14:45:40.498Z,16.00
2022-09-20T14:48:27.280Z,16.30
2022-09-20T14:51:16.368Z,16.20
2022-09-20T14:53:44.394Z,16.10
2022-09-20T14:56:13.355Z,16.00
2022-09-20T14:59:02.857Z,16.00
2022-09-20T15:01:29.735Z,16.20
2022-09-20T15:03:57.755Z,16.00
2022-09-20T15:06:25.112Z,16.30
2022-09-20T15:08:52.415Z,16.60
2022-09-20T15:11:20.466Z,16.50
2022-09-20T15:13:47.439Z,16.30
2022-09-20T15:16:17.609Z,16.00
2022-09-20T15:18:45.010Z,15.60
2022-09-20T15:21:12.210Z,15.30
2022-09-20T15:23:39.994Z,15.00
2022-09-20T15:26:07.741Z,14.90
2022-09-20T15:28:35.278Z,14.60
2022-09-20T15:31:02.258Z,14.40
2022-09-20T15:33:32.146Z,14.40
2022-09-20T15:36:01.988Z,14.30
2022-09-20T15:38:28.860Z,14.00
2022-09-20T15:40:55.838Z,14.00
2022-09-20T15:43:27.123Z,13.80
2022-09-20T15:46:03.038Z,13.50
2022-09-20T15:48:31.109Z,13.40
2022-09-20T15:51:01.834Z,13.40
2022-09-20T15:53:40.892Z,13.40
2022-09-20T15:56:27.524Z,13.20
2022-09-20T15:59:03.866Z,13.20
2022-09-20T16:01:33.025Z,13.20
2022-09-20T16:04:00.115Z,13.20
2022-09-20T16:06:27.144Z,13.10
2022-09-20T16:08:55.471Z,13.20
2022-09-20T16:11:23.255Z,13.30
2022-09-20T16:13:57.711Z,13.20
2022-09-20T16:16:26.113Z,13.40
2022-09-20T16:19:11.898Z,13.40
2022-09-20T16:21:40.613Z,13.60
2022-09-20T16:24:08.254Z,13.40
2022-09-20T16:26:36.175Z,13.20
2022-09-20T16:29:05.032Z,13.00
2022-09-20T16:31:34.844Z,12.80
2022-09-20T16:34:19.433Z,12.60
2022-09-20T16:36:48.952Z,12.40
2022-09-20T16:39:18.060Z,12.10
2022-09-20T16:41:47.854Z,12.10
2022-09-20T16:44:15.517Z,11.90
2022-09-20T16:46:42.441Z,11.80
2022-09-20T16:49:11.579Z,11.70
2022-09-20T16:51:40.715Z,11.60
2022-09-20T16:54:13.041Z,11.50
2022-09-20T16:56:42.245Z,11.30
2022-09-20T16:59:09.294Z,11.20
2022-09-20T17:01:37.103Z,11.10
2022-09-20T17:04:05.525Z,10.90
2022-09-20T17:06:34.493Z,10.80
2022-09-20T17:09:01.790Z,10.60
2022-09-20T17:11:31.703Z,10.40
2022-09-20T17:13:58.950Z,10.30
2022-09-20T17:16:37.672Z,10.20
2022-09-20T17:19:07.487Z,10.10
2022-09-20T17:21:38.718Z,10.00
2022-09-20T17:24:07.705Z,9.90
2022-09-20T17:26:38.335Z,9.70
2022-09-20T17:29:13.078Z,9.60
2022-09-20T17:31:42.699Z,9.40
2022-09-20T17:34:11.826Z,9.20
2022-09-20T17:36:44.355Z,9.20
2022-09-20T17:39:13.090Z,9.10
2022-09-20T17:41:45.018Z,8.90
2022-09-20T17:44:12.698Z,8.80
2022-09-20T17:46:41.617Z,8.60
2022-09-20T17:49:14.002Z,8.50
2022-09-20T17:51:43.240Z,8.50
2022-09-20T17:54:14.214Z,8.60
2022-09-20T17:56:47.145Z,8.50
2022-09-20T17:59:18.427Z,8.50
2022-09-20T18:01:49.360Z,8.40
2022-09-20T18:04:16.226Z,8.30
2022-09-20T18:06:48.753Z,8.10
2022-09-20T18:09:17.570Z,7.90
2022-09-20T18:11:50.108Z,7.80
2022-09-20T18:14:25.192Z,7.70
2022-09-20T18:16:53.503Z,7.60
2022-09-20T18:19:22.631Z,7.50
2022-09-20T18:21:50.043Z,7.40
2022-09-20T18:24:16.958Z,7.30
2022-09-20T18:26:44.587Z,7.30
2022-09-20T18:29:14.036Z,7.20
2022-09-20T18:31:54.324Z,7.10
2022-09-20T18:34:26.756Z,7.10
2022-09-20T18:36:56.656Z,7.10
2022-09-20T18:39:25.064Z,7.00
2022-09-20T18:41:53.120Z,7.10
2022-09-20T18:44:21.248Z,7.10
2022-09-20T18:46:48.915Z,7.10
2022-09-20T18:49:17.030Z,7.10
2022-09-20T18:51:44.607Z,7.00
2022-09-20T18:54:12.020Z,6.90
2022-09-20T18:56:43.562Z,6.90
2022-09-20T18:59:15.140Z,6.80
2022-09-20T19:01:54.012Z,6.70
2022-09-20T19:04:27.127Z,6.70
2022-09-20T19:07:27.092Z,6.70
2022-09-20T19:10:06.061Z,6.80
2022-09-20T19:12:52.365Z,7.00
2022-09-20T19:15:37.802Z,7.00
2022-09-20T19:18:13.670Z,7.10
2022-09-20T19:20:52.762Z,7.10
2022-09-20T19:23:44.363Z,7.10
2022-09-20T19:26:21.803Z,7.10
2022-09-20T19:28:57.562Z,7.00
2022-09-20T19:31:27.768Z,7.00
2022-09-20T19:33:56.815Z,7.00
2022-09-20T19:36:29.846Z,7.00
2022-09-20T19:39:30.791Z,7.10
2022-09-20T19:42:09.630Z,7.10
2022-09-20T19:44:50.396Z,7.00
2022-09-20T19:47:56.537Z,7.00
2022-09-20T19:50:39.451Z,7.10
2022-09-20T19:53:06.668Z,7.10
2022-09-20T19:55:37.927Z,7.10
2022-09-20T19:58:05.218Z,7.10
2022-09-20T20:00:32.412Z,7.40
2022-09-20T20:02:59.553Z,7.70
2022-09-20T20:05:27.804Z,8.00
2022-09-20T20:08:15.462Z,8.30
2022-09-20T20:11:01.675Z,8.40
2022-09-20T20:14:03.303Z,8.50
2022-09-20T20:16:53.217Z,8.50
2022-09-20T20:20:05.461Z,8.60
2022-09-20T20:22:38.306Z,8.70
2022-09-20T20:25:05.721Z,8.60
2022-09-20T20:27:32.750Z,8.70
2022-09-20T20:29:59.797Z,8.60
2022-09-20T20:32:26.638Z,8.50
2022-09-20T20:34:53.418Z,8.50
2022-09-20T20:37:23.969Z,8.50
2022-09-20T20:39:50.824Z,8.50
2022-09-20T20:42:17.683Z,8.50
2022-09-20T20:44:45.411Z,8.40
2022-09-20T20:47:12.218Z,8.20
2022-09-20T20:49:39.038Z,8.10
2022-09-20T20:52:05.981Z,8.00
2022-09-20T20:54:33.200Z,8.00
2022-09-20T20:57:00.138Z,7.90
2022-09-20T20:59:27.071Z,7.70
2022-09-20T21:01:53.950Z,7.70
2022-09-20T21:04:21.802Z,7.60
2022-09-20T21:06:50.417Z,7.50
2022-09-20T21:09:17.359Z,7.40
2022-09-20T21:11:44.484Z,7.30
2022-09-20T21:14:12.701Z,7.10
2022-09-20T21:16:45.136Z,7.00
2022-09-20T21:19:15.686Z,6.90
2022-09-20T21:21:44.911Z,6.90
2022-09-20T21:24:15.259Z,6.90
2022-09-20T21:26:42.114Z,6.70
2022-09-20T21:29:11.536Z,6.60
2022-09-20T21:31:40.581Z,6.50
2022-09-20T21:34:08.954Z,6.40
2022-09-20T21:36:37.335Z,6.30
2022-09-20T21:39:05.028Z,6.20
2022-09-20T21:41:34.796Z,6.20
2022-09-20T21:44:03.817Z,6.10
2022-09-20T21:46:36.074Z,6.10
2022-09-20T21:49:05.721Z,6.10
2022-09-20T21:51:33.138Z,6.10
2022-09-20T21:54:01.737Z,6.00
2022-09-20T21:56:39.091Z,6.00
2022-09-20T21:59:07.135Z,6.10
2022-09-20T22:01:36.881Z,6.20
2022-09-20T22:04:11.677Z,6.20
2022-09-20T22:06:40.632Z,6.30
2022-09-20T22:09:09.347Z,6.40
2022-09-20T22:11:39.245Z,6.50
2022-09-20T22:14:07.511Z,6.40
2022-09-20T22:16:37.835Z,6.50
2022-09-20T22:19:05.813Z,6.50
2022-09-20T22:21:38.405Z,6.50
2022-09-20T22:24:07.908Z,6.40
2022-09-20T22:26:38.842Z,6.50
2022-09-20T22:29:09.290Z,6.40
2022-09-20T22:31:41.346Z,6.40
2022-09-20T22:34:08.195Z,6.30
2022-09-20T22:36:37.327Z,6.30
2022-09-20T22:39:07.398Z,6.20
2022-09-20T22:41:34.889Z,6.30
2022-09-20T22:44:02.135Z,6.20
2022-09-20T22:46:30.324Z,6.20
2022-09-20T22:48:57.226Z,6.20
2022-09-20T22:51:26.787Z,6.10
2022-09-20T22:53:53.883Z,6.10
2022-09-20T22:56:26.490Z,6.10
2022-09-20T22:59:00.181Z,6.00
2022-09-20T23:01:30.515Z,5.90
2022-09-20T23:04:04.322Z,5.80
2022-09-20T23:06:39.910Z,5.70
2022-09-20T23:09:09.478Z,5.60
2022-09-20T23:11:37.326Z,5.60
2022-09-20T23:14:05.970Z,5.50
2022-09-20T23:16:35.540Z,5.40
2022-09-20T23:19:03.937Z,5.30
2022-09-20T23:21:31.316Z,5.20
2022-09-20T23:24:00.959Z,5.30
2022-09-20T23:26:30.446Z,5.20
2022-09-20T23:29:09.310Z,5.10
2022-09-20T23:31:37.706Z,5.10
2022-09-20T23:34:06.742Z,5.20
2022-09-20T23:36:36.311Z,5.10
2022-09-20T23:39:03.313Z,5.20
2022-09-20T23:41:30.112Z,5.10
2022-09-20T23:43:57.388Z,5.10
2022-09-20T23:46:26.192Z,5.00
2022-09-20T23:48:53.838Z,5.00
2022-09-20T23:51:25.320Z,5.00
2022-09-20T23:53:53.170Z,5.00
2022-09-20T23:56:21.472Z,5.00
2022-09-20T23:58:48.717Z,4.90
